Time;durP1;ratioP1;P1;durP2;ratioP2;P2;SDS_P1;SDS_P2;PMS_P1;PMS_P2;Temp;Humidity;BMP_temperature;BMP_pressure;BME280_temperature;BME280_humidity;BME280_pressure;Samples;Min_cycle;Max_cycle;Signal;HPM_P1;HPM_P2
2023/06/09 00:02:03;;;;;;;23.57;9.20;;;;;;;15.77;100.00;34127.16;6245393;23;20156;-63
2023/06/09 00:04:33;;;;;;;20.13;9.03;;;;;;;15.71;100.00;30544.84;6245445;23;20197;-62
2023/06/09 00:07:01;;;;;;;17.83;8.50;;;;;;;15.76;100.00;30872.78;6245608;23;20628;-62
2023/06/09 00:09:29;;;;;;;21.17;8.60;;;;;;;15.78;100.00;30223.53;6245182;23;20211;-62
2023/06/09 00:11:57;;;;;;;26.67;9.23;;;;;;;15.84;100.00;31202.25;6245433;23;20165;-63
2023/06/09 00:14:24;;;;;;;22.97;9.10;;;;;;;15.80;100.00;31200.00;6245608;23;20488;-63
2023/06/09 00:16:51;;;;;;;39.30;10.27;;;;;;;15.87;100.00;35435.84;6245546;23;20592;-62
2023/06/09 00:19:18;;;;;;;34.43;10.47;;;;;;;15.78;100.00;45540.75;6245250;23;20247;-62
2023/06/09 00:21:49;;;;;;;25.47;9.63;;;;;;;15.84;100.00;52412.81;6244939;23;20160;-62
2023/06/09 00:24:16;;;;;;;15.43;8.83;;;;;;;15.76;100.00;52733.31;6244935;23;20187;-61
2023/06/09 00:26:43;;;;;;;31.23;9.97;;;;;;;15.94;100.00;53732.22;6244983;23;20157;-62
2023/06/09 00:29:11;;;;;;;21.00;8.40;;;;;;;15.84;100.00;54050.41;6245028;23;20216;-61
2023/06/09 00:31:40;;;;;;;22.37;9.27;;;;;;;15.83;100.00;49467.09;6245394;23;20652;-63
2023/06/09 00:34:07;;;;;;;21.20;8.87;;;;;;;15.73;100.00;47497.06;6245407;23;20157;-63
2023/06/09 00:36:34;;;;;;;16.33;7.90;;;;;;;15.63;100.00;41938.81;6245059;23;20157;-62
2023/06/09 00:39:01;;;;;;;22.67;8.27;;;;;;;15.59;100.00;47158.72;6244956;23;20164;-63
2023/06/09 00:41:28;;;;;;;29.57;9.23;;;;;;;15.44;100.00;44535.16;6244975;23;20157;-62
2023/06/09 00:43:55;;;;;;;19.70;8.17;;;;;;;15.58;100.00;43892.88;6244603;23;20651;-62
2023/06/09 00:46:24;;;;;;;16.63;8.10;;;;;;;15.54;100.00;43563.44;6245046;23;20164;-62
2023/06/09 00:48:51;;;;;;;21.63;8.87;;;;;;;15.53;100.00;41931.44;6245036;23;20161;-62
2023/06/09 00:51:18;;;;;;;33.13;9.03;;;;;;;15.47;100.00;38341.41;6244763;23;20217;-63
2023/06/09 00:53:45;;;;;;;13.10;8.33;;;;;;;15.24;100.00;34095.09;6245165;23;20628;-62
2023/06/09 00:56:13;;;;;;;32.23;10.20;;;;;;;15.41;100.00;34430.84;6244951;23;20157;-61
2023/06/09 00:58:40;;;;;;;16.13;8.47;;;;;;;15.21;100.00;28893.19;6244716;23;20236;-63
2023/06/09 01:01:08;;;;;;;24.93;8.73;;;;;;;15.18;100.00;27917.88;6245002;23;20161;-63
2023/06/09 01:03:38;;;;;;;19.60;8.93;;;;;;;15.20;100.00;24998.44;6244642;23;20167;-62
2023/06/09 01:06:12;;;;;;;18.10;8.03;;;;;;;15.02;100.00;24665.91;6244643;23;20161;-62
2023/06/09 01:08:47;;;;;;;25.87;9.00;;;;;;;14.92;100.00;24013.28;6244647;23;20157;-62
2023/06/09 01:11:21;;;;;;;16.20;9.07;;;;;;;15.06;100.00;24019.31;6244631;23;20156;-62
2023/06/09 01:13:56;;;;;;;21.37;9.27;;;;;;;15.07;100.00;24668.19;6245023;23;20619;-62
2023/06/09 01:16:28;;;;;;;10.80;7.83;;;;;;;15.07;100.00;23695.56;6245232;23;20156;-63
2023/06/09 01:19:01;;;;;;;20.07;8.80;;;;;;;15.04;100.00;26288.38;6245021;23;20168;-62
2023/06/09 01:21:35;;;;;;;29.40;9.40;;;;;;;15.01;100.00;24341.47;6244123;23;20219;-62
2023/06/09 01:24:17;;;;;;;20.90;8.53;;;;;;;14.93;100.00;23365.56;6244371;23;20207;-63
2023/06/09 01:26:46;;;;;;;26.27;8.67;;;;;;;14.86;100.00;21742.84;6244350;23;20214;-63
2023/06/09 01:29:15;;;;;;;19.43;8.97;;;;;;;14.91;100.00;19478.47;6244637;23;20157;-62
2023/06/09 01:31:43;;;;;;;25.30;8.60;;;;;;;14.91;100.00;18507.44;6244711;23;20235;-62
2023/06/09 01:34:10;;;;;;;13.83;7.27;;;;;;;14.86;100.00;19152.81;6244382;23;20162;-62
2023/06/09 01:36:38;;;;;;;16.53;7.77;;;;;;;14.73;100.00;18501.22;6244370;23;20160;-63
2023/06/09 01:39:06;;;;;;;10.90;7.33;;;;;;;14.71;100.00;18824.00;6244734;23;20619;-62
2023/06/09 01:41:32;;;;;;;18.63;7.43;;;;;;;14.75;100.00;20766.91;6244453;23;20614;-63
2023/06/09 01:44:01;;;;;;;15.33;8.20;;;;;;;14.88;100.00;22067.56;6244386;23;20567;-63
2023/06/09 01:46:28;;;;;;;8.03;7.43;;;;;;;14.86;100.00;22390.63;6244358;23;20167;-62
2023/06/09 01:49:02;;;;;;;14.47;8.23;;;;;;;14.87;100.00;20771.59;6244388;23;20161;-62
2023/06/09 01:51:37;;;;;;;13.47;7.60;;;;;;;14.77;100.00;20767.88;6244351;23;20157;-63
2023/06/09 01:54:09;;;;;;;13.00;7.57;;;;;;;14.81;100.00;21740.81;6244696;23;20152;-63
2023/06/09 01:56:43;;;;;;;27.90;9.13;;;;;;;14.88;100.00;22715.41;6244255;23;20165;-63
2023/06/09 01:59:18;;;;;;;19.53;9.80;;;;;;;14.80;100.00;20769.06;6244529;23;20164;-62
2023/06/09 02:01:48;;;;;;;10.03;8.90;;;;;;;14.63;100.00;18174.47;6244847;23;20496;-63
2023/06/09 02:04:18;;;;;;;25.67;9.00;;;;;;;14.74;100.00;18177.94;6244478;23;20196;-62
2023/06/09 02:06:47;;;;;;;15.50;8.70;;;;;;;14.65;100.00;15911.94;6244767;23;20211;-62
2023/06/09 02:09:16;;;;;;;23.43;9.37;;;;;;;14.69;100.00;15913.19;6244131;23;20199;-63
2023/06/09 02:11:43;;;;;;;32.83;11.23;;;;;;;14.77;100.00;10747.84;6244434;23;20539;-62
2023/06/09 02:14:11;;;;;;;40.27;11.10;;;;;;;14.59;100.00;6229.91;6244194;23;20518;-61
2023/06/09 02:16:38;;;;;;;25.50;10.30;;;;;;;14.61;100.00;4297.50;6244099;23;20163;-62
2023/06/09 02:19:04;;;;;;;20.20;10.07;;;;;;;14.70;100.00;4942.75;6244496;23;20163;-62
2023/06/09 02:21:31;;;;;;;31.77;10.93;;;;;;;14.68;100.00;4620.31;6244413;23;20616;-62
2023/06/09 02:23:58;;;;;;;17.50;9.93;;;;;;;14.56;100.00;5907.19;6243911;23;20157;-61
2023/06/09 02:26:26;;;;;;;46.47;10.63;;;;;;;14.29;100.00;6869.34;6244151;23;20156;-63
2023/06/09 02:28:53;;;;;;;30.33;10.10;;;;;;;14.10;100.00;6866.38;6244132;23;20239;-62
2023/06/09 02:31:21;;;;;;;25.27;10.67;;;;;;;14.43;100.00;5905.25;6244511;23;20465;-62
2023/06/09 02:33:48;;;;;;;20.60;10.37;;;;;;;14.57;100.00;5263.09;6244967;23;20157;-62
2023/06/09 02:36:15;;;;;;;33.27;11.20;;;;;;;14.50;100.00;5262.13;6246055;23;20235;-63
2023/06/09 02:38:42;;;;;;;28.97;10.80;;;;;;;14.65;100.00;6230.75;6246062;23;20170;-62
2023/06/09 02:41:09;;;;;;;30.57;11.07;;;;;;;14.49;100.00;5906.16;6246083;23;20165;-62
2023/06/09 02:43:36;;;;;;;30.43;11.00;;;;;;;14.56;100.00;6873.88;6245894;23;20211;-62
2023/06/09 02:46:03;;;;;;;27.93;10.90;;;;;;;14.59;100.00;6874.31;6246022;23;20181;-63
2023/06/09 02:48:31;;;;;;;24.63;10.80;;;;;;;14.67;100.00;7197.94;6246207;23;20499;-63
2023/06/09 02:50:58;;;;;;;30.97;12.13;;;;;;;14.80;100.00;6877.78;6246331;23;20542;-62
2023/06/09 02:53:28;;;;;;;36.03;11.60;;;;;;;14.66;100.00;7197.78;6246282;23;20492;-63
2023/06/09 02:55:55;;;;;;;31.40;10.80;;;;;;;14.66;100.00;7197.78;6246052;23;20157;-63
2023/06/09 02:58:24;;;;;;;28.50;11.07;;;;;;;14.56;100.00;5585.06;6246317;23;20161;-62
2023/06/09 03:00:51;;;;;;;23.77;10.53;;;;;;;14.84;100.00;6555.97;6246231;23;20223;-62
2023/06/09 03:03:18;;;;;;;22.00;10.57;;;;;;;14.79;100.00;8812.41;6246277;23;20247;-62
2023/06/09 03:05:47;;;;;;;20.60;11.10;;;;;;;14.92;100.00;10751.28;6246449;23;20196;-62
2023/06/09 03:08:14;;;;;;;22.17;11.53;;;;;;;15.04;100.00;11722.69;6246371;23;20626;-63
2023/06/09 03:10:41;;;;;;;36.73;11.63;;;;;;;15.18;100.00;13664.81;6245811;23;20244;-62
2023/06/09 03:13:08;;;;;;;20.33;10.47;;;;;;;15.29;100.00;17549.78;6246215;23;20592;-62
2023/06/09 03:15:35;;;;;;;23.10;11.80;;;;;;;15.69;100.00;25345.44;6246095;23;20154;-62
2023/06/09 03:18:01;;;;;;;24.60;12.00;;;;;;;15.89;100.00;34459.78;6245889;23;20243;-63
2023/06/09 03:20:28;;;;;;;23.40;10.70;;;;;;;16.37;100.00;39707.56;6246060;23;20593;-62
2023/06/09 03:22:57;;;;;;;23.17;11.27;;;;;;;16.55;100.00;61337.16;6246016;23;20260;-63
2023/06/09 03:25:25;;;;;;;25.23;11.00;;;;;;;16.78;100.00;75525.25;6245677;23;20259;-62
2023/06/09 03:27:53;;;;;;;27.13;11.23;;;;;;;16.67;100.00;83439.81;6246008;23;20161;-63
2023/06/09 03:30:20;;;;;;;27.07;11.47;;;;;;;16.60;100.00;77482.44;6245973;23;20592;-63
2023/06/09 03:32:47;;;;;;;23.23;11.03;;;;;;;16.55;100.00;72197.06;6245992;23;20518;-62
2023/06/09 03:35:15;;;;;;;29.50;11.50;;;;;;;16.59;100.00;77811.28;6245744;23;20157;-63
2023/06/09 03:37:42;;;;;;;31.90;11.87;;;;;;;16.61;100.00;72205.09;6245526;23;20167;-62
2023/06/09 03:40:12;;;;;;;29.67;11.27;;;;;;;16.83;100.00;83462.56;6245430;23;20157;-62
2023/06/09 03:42:39;;;;;;;28.67;11.50;;;;;;;17.09;100.00;96100.63;6245623;23;20236;-63
2023/06/09 03:45:06;;;;;;;35.90;12.60;;;;;;;17.27;100.00;113787.09;6244688;23;20181;-62
2023/06/09 03:47:33;;;;;;;17.63;10.47;;;;;;;17.47;100.00;140105.34;6245350;23;20157;-64
2023/06/09 03:50:00;;;;;;;20.20;11.37;;;;;;;17.68;100.00;150144.41;6245772;23;20157;-62
2023/06/09 03:52:28;;;;;;;30.73;11.03;;;;;;;17.94;100.00;150545.63;6246141;23;20464;-63
2023/06/09 03:54:55;;;;;;;22.63;11.17;;;;;;;18.16;100.00;150602.81;6245911;23;20551;-63
2023/06/09 03:57:23;;;;;;;27.60;10.50;;;;;;;18.40;100.00;150661.31;6245917;23;20161;-63
2023/06/09 03:59:50;;;;;;;32.93;11.80;;;;;;;18.54;100.00;150698.22;6219010;23;20247;-63
2023/06/09 04:02:17;;;;;;;19.70;11.40;;;;;;;18.67;100.00;150731.28;6245235;23;20161;-63
2023/06/09 04:04:46;;;;;;;23.33;9.80;;;;;;;18.86;100.00;150778.38;6245512;23;20211;-62
2023/06/09 04:07:14;;;;;;;35.17;12.10;;;;;;;19.13;100.00;150845.81;6245590;23;20157;-62
2023/06/09 04:09:41;;;;;;;25.90;11.07;;;;;;;19.25;100.00;150876.34;6245673;23;20469;-64
2023/06/09 04:12:09;;;;;;;16.53;10.70;;;;;;;19.40;100.00;150913.22;6245516;23;20167;-63
2023/06/09 04:14:38;;;;;;;14.77;10.33;;;;;;;19.56;100.00;150954.03;6245103;23;20161;-63
2023/06/09 04:17:05;;;;;;;16.23;10.93;;;;;;;19.69;100.00;150987.06;6245086;23;20157;-66
2023/06/09 04:19:32;;;;;;;16.70;11.27;;;;;;;19.73;100.00;150997.25;6245096;23;20165;-63
2023/06/09 04:22:04;;;;;;;21.00;12.13;;;;;;;20.00;100.00;151064.72;6245594;23;20157;-63
2023/06/09 04:24:31;;;;;;;54.20;14.57;;;;;;;20.19;100.00;151113.13;6245247;23;20157;-63
2023/06/09 04:26:58;;;;;;;23.57;13.57;;;;;;;20.37;100.00;151159.00;6245453;23;20156;-64
2023/06/09 04:29:26;;;;;;;38.20;14.47;;;;;;;20.55;100.00;151202.28;6245424;23;20541;-63
2023/06/09 04:31:58;;;;;;;37.47;13.45;;;;;;;20.68;100.00;151236.69;6245374;23;20161;-64
2023/06/09 04:34:26;;;;;;;29.75;14.68;;;;;;;20.70;100.00;151241.81;6245590;23;20163;-65
2023/06/09 04:36:53;;;;;;;24.35;14.27;;;;;;;20.97;100.00;151309.28;6245271;23;20252;-65
2023/06/09 04:39:20;;;;;;;35.05;13.73;;;;;;;21.05;100.00;151329.66;6244730;23;20227;-63
2023/06/09 04:41:48;;;;;;;35.15;14.52;;;;;;;21.19;100.00;151365.41;6244978;23;20163;-63
2023/06/09 04:44:15;;;;;;;17.65;12.15;;;;;;;21.40;100.00;151417.66;6245008;23;20750;-63
2023/06/09 04:46:42;;;;;;;18.45;11.10;;;;;;;21.53;100.00;151449.50;6245276;23;20181;-63
2023/06/09 04:49:10;;;;;;;18.52;10.07;;;;;;;21.58;100.00;151463.53;6244917;23;20248;-63
2023/06/09 04:51:41;;;;;;;13.68;10.30;;;;;;;21.72;100.00;151499.25;6245282;23;20163;-64
2023/06/09 04:54:08;;;;;;;20.85;10.95;;;;;;;21.69;100.00;151491.56;6245649;23;20499;-65
2023/06/09 04:56:36;;;;;;;18.52;11.52;;;;;;;21.68;100.00;151487.75;6245032;23;20272;-64
2023/06/09 04:59:04;;;;;;;23.02;12.02;;;;;;;21.45;100.00;151429.13;6244847;23;20157;-64
2023/06/09 05:01:33;;;;;;;15.52;10.45;;;;;;;21.40;100.00;151418.94;6246690;23;20161;-63
2023/06/09 05:04:00;;;;;;;20.73;10.82;;;;;;;21.28;100.00;151387.06;6245373;23;20173;-63
2023/06/09 05:06:28;;;;;;;13.13;11.00;;;;;;;21.59;100.00;151464.81;6245382;23;20187;-65
2023/06/09 05:08:55;;;;;;;20.25;11.68;;;;;;;21.94;100.00;151552.81;6245026;23;20456;-64
2023/06/09 05:11:22;;;;;;;26.25;11.68;;;;;;;22.02;100.00;151574.50;6245406;23;20165;-63
2023/06/09 05:13:49;;;;;;;15.68;11.98;;;;;;;22.27;100.00;151636.97;6244955;23;20199;-61
2023/06/09 05:16:16;;;;;;;22.30;10.95;;;;;;;22.55;100.00;151708.38;6244895;23;20492;-63
2023/06/09 05:18:43;;;;;;;22.08;12.30;;;;;;;23.15;100.00;151858.94;6244309;23;20164;-62
2023/06/09 05:21:13;;;;;;;42.53;14.02;;;;;;;23.45;100.00;151934.28;6218093;23;20179;-62
2023/06/09 05:23:42;;;;;;;22.83;12.82;;;;;;;23.63;100.00;151980.22;6244601;23;20289;-64
2023/06/09 05:26:08;;;;;;;13.77;12.05;;;;;;;23.83;100.00;152031.28;6244096;23;20198;-62
2023/06/09 05:28:36;;;;;;;22.85;11.43;;;;;;;23.91;100.00;152050.41;6244256;23;20163;-63
2023/06/09 05:31:02;;;;;;;14.15;11.95;;;;;;;24.06;100.00;152088.72;6244760;23;20161;-64
2023/06/09 05:33:29;;;;;;;18.80;12.82;;;;;;;24.44;100.00;152184.53;6244874;23;20157;-62
2023/06/09 05:35:56;;;;;;;22.83;12.80;;;;;;;24.34;100.00;152160.25;6244536;23;20163;-63
2023/06/09 05:38:25;;;;;;;23.17;12.20;;;;;;;24.79;100.00;152273.91;6244320;23;20156;-63
2023/06/09 05:40:53;;;;;;;16.77;11.63;;;;;;;24.89;100.00;152298.22;6243844;23;20176;-61
2023/06/09 05:43:21;;;;;;;17.48;12.25;;;;;;;24.90;100.00;152302.09;6243742;23;20200;-63
2023/06/09 05:45:48;;;;;;;13.57;11.88;;;;;;;25.27;100.00;152394.03;6244154;23;20177;-62
2023/06/09 05:48:14;;;;;;;18.58;11.70;;;;;;;25.35;100.00;152414.47;6244253;23;20678;-63
2023/06/09 05:50:41;;;;;;;13.45;10.95;;;;;;;25.36;100.00;152417.03;6244044;23;20478;-62
2023/06/09 05:53:09;;;;;;;13.63;11.10;;;;;;;25.66;100.00;152492.50;6243918;23;20218;-62
2023/06/09 05:55:36;;;;;;;15.18;10.13;;;;;;;25.90;100.00;152553.81;6244575;23;20611;-62
2023/06/09 05:58:05;;;;;;;14.57;10.00;;;;;;;26.18;100.00;152624.16;6244232;23;20474;-64
2023/06/09 06:00:33;;;;;;;9.52;8.63;;;;;;;26.26;100.00;152644.66;6244110;23;20440;-65
2023/06/09 06:03:01;;;;;;;12.75;8.48;;;;;;;26.58;100.00;152726.47;6244058;23;20232;-64
2023/06/09 06:05:30;;;;;;;11.23;8.98;;;;;;;26.88;100.00;152800.69;6243941;23;20192;-64
2023/06/09 06:07:58;;;;;;;9.07;7.85;;;;;;;27.12;100.00;152862.06;6243556;23;20160;-64
2023/06/09 06:10:26;;;;;;;12.13;7.63;;;;;;;27.49;100.00;152956.81;6243615;23;20157;-64
2023/06/09 06:12:54;;;;;;;7.80;7.10;;;;;;;27.59;100.00;152982.38;6243870;23;20215;-63
2023/06/09 06:15:24;;;;;;;8.30;7.38;;;;;;;27.77;100.00;153027.19;6243555;23;20188;-64
2023/06/09 06:17:51;;;;;;;6.78;6.35;;;;;;;27.95;100.00;153071.97;6244763;23;20246;-65
2023/06/09 06:20:17;;;;;;;8.25;6.40;;;;;;;28.19;98.34;153132.16;6244063;23;20157;-64
2023/06/09 06:22:44;;;;;;;7.82;6.80;;;;;;;28.45;95.87;153200.03;6243879;23;20248;-64
2023/06/09 06:25:13;;;;;;;5.85;5.30;;;;;;;28.76;92.93;153278.19;6243899;23;20232;-64
2023/06/09 06:27:40;;;;;;;7.43;5.78;;;;;;;29.52;87.48;153469.06;6244075;23;20157;-65
2023/06/09 06:30:09;;;;;;;15.02;5.00;;;;;;;29.60;83.84;153489.56;6243874;23;20160;-65
2023/06/09 06:32:39;;;;;;;7.78;4.30;;;;;;;30.34;75.62;153679.25;6243687;23;20167;-64
2023/06/09 06:35:09;;;;;;;4.57;4.10;;;;;;;31.18;71.54;153890.91;6244910;23;20207;-64
2023/06/09 06:37:36;;;;;;;5.28;4.68;;;;;;;31.22;71.35;153902.44;6244586;23;20164;-65
2023/06/09 06:40:04;;;;;;;22.88;7.22;;;;;;;30.64;77.03;153753.69;6243978;23;20172;-64
2023/06/09 06:42:31;;;;;;;15.45;6.13;;;;;;;29.29;79.07;153412.69;6244321;23;20611;-63
2023/06/09 06:44:58;;;;;;;14.23;5.85;;;;;;;28.35;92.09;153173.13;6243878;23;20168;-64
2023/06/09 06:47:25;;;;;;;31.50;5.78;;;;;;;28.63;92.38;153243.56;6217633;23;20207;-64
2023/06/09 06:49:53;;;;;;;19.73;5.93;;;;;;;28.77;91.36;153279.47;6244201;23;20247;-63
2023/06/09 06:52:20;;;;;;;5.88;4.47;;;;;;;28.89;89.55;153311.50;6243897;23;20650;-63
2023/06/09 06:54:46;;;;;;;9.15;4.97;;;;;;;29.43;85.04;153447.28;6244156;23;20513;-65
2023/06/09 06:57:14;;;;;;;9.57;3.90;;;;;;;29.66;81.32;153504.94;6244202;23;20568;-64
2023/06/09 06:59:41;;;;;;;10.70;4.68;;;;;;;29.86;76.22;153557.47;6244232;23;20161;-62
2023/06/09 07:02:09;;;;;;;22.58;4.63;;;;;;;29.64;77.87;153501.09;6244072;23;20650;-63
2023/06/09 07:04:36;;;;;;;10.70;4.00;;;;;;;29.30;81.79;153415.25;6244496;23;20191;-63
2023/06/09 07:07:10;;;;;;;3.45;3.20;;;;;;;29.00;81.16;153339.66;6243643;23;20643;-63
2023/06/09 07:09:40;;;;;;;5.88;3.40;;;;;;;28.92;82.58;153317.88;6243828;23;20610;-62
2023/06/09 07:12:08;;;;;;;22.23;5.35;;;;;;;28.74;82.86;153273.03;6244306;23;20157;-64
2023/06/09 07:14:35;;;;;;;5.43;3.47;;;;;;;28.83;80.96;153294.81;6243559;23;20177;-63
2023/06/09 07:17:06;;;;;;;5.10;3.13;;;;;;;28.74;84.59;153273.03;6243821;23;20160;-63
2023/06/09 07:19:35;;;;;;;6.07;3.30;;;;;;;28.97;80.33;153330.69;6244699;23;20231;-65
2023/06/09 07:22:02;;;;;;;9.85;3.85;;;;;;;29.04;81.19;153348.59;6246242;23;20555;-65
2023/06/09 07:24:30;;;;;;;8.52;3.15;;;;;;;29.02;78.76;153344.78;6245737;23;20157;-65
2023/06/09 07:26:57;;;;;;;5.35;3.22;;;;;;;28.97;74.92;153330.69;6243762;23;20185;-65
2023/06/09 07:29:24;;;;;;;7.13;3.50;;;;;;;28.40;76.89;153187.22;6247123;23;20167;-64
2023/06/09 07:31:51;;;;;;;3.33;3.10;;;;;;;27.99;78.45;153083.50;6247297;23;20156;-65
2023/06/09 07:34:18;;;;;;;3.63;3.33;;;;;;;27.74;82.06;153018.22;6246933;23;20547;-64
2023/06/09 07:36:50;;;;;;;3.85;3.10;;;;;;;27.64;81.81;152995.19;6247609;23;20248;-59
2023/06/09 07:39:17;;;;;;;9.52;3.53;;;;;;;27.57;81.98;152976.00;6245205;23;20676;-59
2023/06/09 07:41:45;;;;;;;8.35;3.85;;;;;;;27.49;85.37;152956.81;6245851;23;20216;-60
2023/06/09 07:44:12;;;;;;;6.10;4.03;;;;;;;27.70;87.88;153010.56;6218860;23;20287;-58
2023/06/09 07:46:40;;;;;;;9.88;4.45;;;;;;;27.97;85.84;153077.06;6245041;23;20187;-60
2023/06/09 07:49:07;;;;;;;10.23;4.57;;;;;;;27.92;84.99;153065.56;6244941;23;20161;-59
2023/06/09 07:51:36;;;;;;;9.32;3.22;;;;;;;27.94;82.01;153070.69;6245831;23;20160;-60
2023/06/09 07:54:04;;;;;;;3.20;2.90;;;;;;;27.99;82.46;153082.22;6220107;23;20260;-59
2023/06/09 07:56:31;;;;;;;7.60;3.22;;;;;;;28.06;80.54;153100.13;6245004;23;20543;-60
2023/06/09 07:59:06;;;;;;;3.58;3.28;;;;;;;27.89;81.06;153056.59;6245281;23;20157;-60
2023/06/09 08:01:37;;;;;;;6.60;2.90;;;;;;;27.57;80.42;152977.28;6246168;23;20160;-60
2023/06/09 08:04:09;;;;;;;8.10;3.30;;;;;;;27.45;81.63;152946.53;6246187;23;20284;-60
2023/06/09 08:06:37;;;;;;;6.90;2.83;;;;;;;27.54;81.12;152969.56;6245602;23;20500;-59
2023/06/09 08:09:04;;;;;;;3.30;2.90;;;;;;;27.26;82.84;152899.19;6245866;23;20652;-60
2023/06/09 08:11:31;;;;;;;2.78;2.65;;;;;;;27.51;82.00;152960.63;6245411;23;20553;-59
2023/06/09 08:13:59;;;;;;;9.60;3.55;;;;;;;27.71;81.28;153011.81;6218157;23;20161;-59
2023/06/09 08:16:27;;;;;;;12.95;3.00;;;;;;;27.76;81.99;153023.31;6245002;23;20159;-59
2023/06/09 08:18:54;;;;;;;12.43;2.90;;;;;;;27.95;83.00;153071.97;6245272;23;20501;-60
2023/06/09 08:21:21;;;;;;;3.63;2.97;;;;;;;27.93;80.03;153066.84;6244311;23;20620;-59
2023/06/09 08:23:52;;;;;;;5.40;2.88;;;;;;;27.65;81.00;152997.75;6244882;23;20173;-60
2023/06/09 08:26:19;;;;;;;4.53;2.30;;;;;;;27.57;81.56;152977.28;6244905;23;20187;-60
2023/06/09 08:28:48;;;;;;;5.25;2.35;;;;;;;27.26;88.42;152897.91;6245152;23;20219;-58
2023/06/09 08:31:17;;;;;;;7.20;2.58;;;;;;;27.33;87.79;152914.56;6245165;23;20157;-59
2023/06/09 08:33:47;;;;;;;4.30;2.50;;;;;;;27.58;84.14;152978.56;6245493;23;20165;-58
2023/06/09 08:36:14;;;;;;;2.55;2.38;;;;;;;27.54;81.25;152968.34;6244352;23;20180;-59
2023/06/09 08:38:43;;;;;;;3.65;2.83;;;;;;;27.63;83.23;152992.63;6244888;23;20580;-58
2023/06/09 08:41:16;;;;;;;3.97;2.75;;;;;;;27.91;80.31;153061.75;6246279;23;20219;-59
2023/06/09 08:43:49;;;;;;;3.30;2.75;;;;;;;27.81;80.49;153036.13;6245189;23;20281;-59
2023/06/09 08:46:21;;;;;;;8.52;2.67;;;;;;;27.78;83.00;153029.75;6245035;23;20256;-59
2023/06/09 08:48:51;;;;;;;4.70;2.92;;;;;;;28.00;79.20;153084.78;6244876;23;20157;-59
2023/06/09 08:51:22;;;;;;;8.77;3.10;;;;;;;28.08;75.89;153105.25;6245249;23;20231;-58
2023/06/09 08:53:52;;;;;;;3.55;2.65;;;;;;;28.03;76.62;153093.75;6244263;23;20169;-60
2023/06/09 08:56:21;;;;;;;4.22;2.40;;;;;;;28.46;73.32;153202.59;6244494;23;20164;-59
2023/06/09 08:58:49;;;;;;;3.45;2.72;;;;;;;28.51;72.71;153215.41;6246147;23;20246;-59
2023/06/09 09:01:19;;;;;;;2.88;2.70;;;;;;;28.63;72.24;153244.84;6244987;23;20153;-58
2023/06/09 09:03:47;;;;;;;7.57;2.92;;;;;;;28.58;71.39;153232.03;6244760;23;20196;-58
2023/06/09 09:06:15;;;;;;;3.45;3.00;;;;;;;28.49;72.19;153210.25;6245244;23;20215;-58
2023/06/09 09:08:43;;;;;;;3.58;2.70;;;;;;;28.15;73.47;153123.22;6244412;23;20195;-59
2023/06/09 09:11:10;;;;;;;6.22;2.58;;;;;;;27.55;77.81;152970.88;6244829;23;20192;-60
2023/06/09 09:13:37;;;;;;;2.90;2.70;;;;;;;27.64;78.71;152995.19;6244327;23;20164;-59
2023/06/09 09:16:05;;;;;;;5.10;3.03;;;;;;;27.83;76.17;153041.28;6244673;23;20164;-60
2023/06/09 09:18:35;;;;;;;4.05;3.00;;;;;;;27.79;75.29;153032.31;6244236;23;20172;-58
2023/06/09 09:21:03;;;;;;;3.05;2.75;;;;;;;27.79;77.14;153031.03;6244229;23;20192;-59
2023/06/09 09:23:31;;;;;;;8.55;3.08;;;;;;;27.94;75.98;153069.41;6244540;23;20180;-60
2023/06/09 09:25:59;;;;;;;2.60;2.50;;;;;;;28.04;74.21;153096.31;6244415;23;20457;-59
2023/06/09 09:28:26;;;;;;;2.90;2.70;;;;;;;28.00;72.67;153086.06;6245104;23;20255;-59
2023/06/09 09:30:55;;;;;;;4.82;4.40;;;;;;;28.20;74.74;153136.03;6244260;23;20231;-59
2023/06/09 09:33:23;;;;;;;5.22;2.42;;;;;;;28.52;70.79;153216.66;6244697;23;20178;-59
2023/06/09 09:35:54;;;;;;;3.10;2.63;;;;;;;28.36;70.71;153175.69;6245760;23;20628;-65
2023/06/09 09:38:22;;;;;;;4.53;3.17;;;;;;;28.65;69.85;153249.94;6244600;23;20157;-65
2023/06/09 09:40:51;;;;;;;2.90;2.67;;;;;;;28.37;70.71;153179.56;6245026;23;20231;-65
2023/06/09 09:43:19;;;;;;;3.00;2.67;;;;;;;28.49;71.09;153210.25;6244003;23;20201;-67
2023/06/09 09:45:48;;;;;;;3.90;2.90;;;;;;;28.63;70.13;153243.56;6246259;23;20161;-64
2023/06/09 09:48:18;;;;;;;2.78;2.58;;;;;;;29.11;66.09;153366.50;6245073;23;20184;-65
2023/06/09 09:50:48;;;;;;;3.15;2.70;;;;;;;29.04;65.79;153349.88;6244936;23;20252;-64
2023/06/09 09:53:17;;;;;;;2.97;2.63;;;;;;;29.41;65.80;153443.44;6247107;23;20188;-64
2023/06/09 09:55:45;;;;;;;2.67;2.53;;;;;;;29.94;62.42;153576.75;6249890;23;20191;-66
2023/06/09 09:58:13;;;;;;;2.80;2.60;;;;;;;29.97;61.11;153584.41;6251164;23;20148;-65
2023/06/09 10:00:43;;;;;;;4.18;2.55;;;;;;;29.80;61.63;153542.09;6248061;23;20157;-64
2023/06/09 10:03:14;;;;;;;4.55;2.70;;;;;;;29.93;62.28;153575.44;6247128;23;20195;-67
2023/06/09 10:05:47;;;;;;;2.60;2.50;;;;;;;29.88;61.28;153561.34;6250011;23;20251;-64
2023/06/09 10:08:21;;;;;;;3.00;2.80;;;;;;;29.75;62.76;153527.97;6244618;23;20686;-64
2023/06/09 10:10:48;;;;;;;2.90;2.78;;;;;;;29.32;65.28;153420.38;6244345;23;20179;-64
2023/06/09 10:13:16;;;;;;;3.33;2.75;;;;;;;29.38;63.28;153434.47;6244608;23;20165;-64
2023/06/09 10:15:44;;;;;;;2.88;2.60;;;;;;;29.31;63.57;153417.84;6244211;23;20156;-64
2023/06/09 10:18:13;;;;;;;4.93;2.90;;;;;;;29.21;66.38;153390.88;6244509;23;20489;-64
2023/06/09 10:20:42;;;;;;;7.60;3.10;;;;;;;28.84;68.22;153297.38;6245048;23;20247;-64
2023/06/09 10:23:09;;;;;;;3.20;2.78;;;;;;;28.88;68.34;153308.91;6245067;23;20203;-64
2023/06/09 10:25:38;;;;;;;2.80;2.40;;;;;;;28.94;68.51;153324.25;6244404;23;20179;-64
2023/06/09 10:28:06;;;;;;;2.90;2.67;;;;;;;29.24;65.60;153399.81;6243805;23;20223;-63
2023/06/09 10:33:18;;;;;;;6.22;3.03;;;;;;;29.23;65.22;153397.28;6246883;23;20176;-63
2023/06/09 10:35:48;;;;;;;4.55;2.80;;;;;;;29.42;63.68;153444.72;6244608;23;20161;-64
2023/06/09 10:38:28;;;;;;;5.30;2.80;;;;;;;29.34;65.58;153425.50;6244578;23;20243;-63
2023/06/09 10:41:07;;;;;;;3.28;3.08;;;;;;;29.28;66.02;153408.81;6244385;23;20244;-64
2023/06/09 10:44:09;;;;;;;3.15;2.88;;;;;;;28.93;64.08;153321.72;6244752;23;20473;-63
2023/06/09 10:46:46;;;;;;;3.35;3.08;;;;;;;28.57;67.50;153230.75;6237026;23;20172;-65
2023/06/09 10:49:39;;;;;;;3.08;2.90;;;;;;;28.43;68.61;153194.88;6244402;23;20243;-64
2023/06/09 10:52:08;;;;;;;6.28;2.90;;;;;;;28.29;73.00;153159.06;6244784;23;20588;-64
2023/06/09 10:54:36;;;;;;;12.82;2.50;;;;;;;28.02;72.76;153089.88;6246379;23;20161;-64
2023/06/09 10:57:06;;;;;;;3.97;2.40;;;;;;;27.92;75.07;153064.31;6247199;23;20152;-64
2023/06/09 11:00:09;;;;;;;2.80;2.58;;;;;;;27.67;76.47;153002.84;6247251;23;20157;-66
2023/06/09 11:02:36;;;;;;;3.10;2.80;;;;;;;27.35;81.27;152920.94;6247119;23;20160;-65
2023/06/09 11:05:04;;;;;;;3.05;2.85;;;;;;;26.94;85.20;152817.34;6247069;23;20515;-64
2023/06/09 11:07:33;;;;;;;3.78;2.42;;;;;;;27.11;87.35;152859.53;6245843;23;20461;-62
2023/06/09 11:10:36;;;;;;;10.18;3.00;;;;;;;27.14;86.47;152867.22;6245930;23;20161;-64
2023/06/09 11:13:39;;;;;;;6.07;3.10;;;;;;;27.01;87.23;152833.94;6246179;23;20201;-63
2023/06/09 11:16:08;;;;;;;2.50;2.40;;;;;;;26.80;90.34;152782.75;6245549;23;20167;-63
2023/06/09 11:18:35;;;;;;;2.65;2.42;;;;;;;26.68;93.67;152752.06;6219545;23;20167;-63
2023/06/09 11:21:19;;;;;;;3.88;2.63;;;;;;;26.72;93.53;152762.28;6246148;23;20243;-62
2023/06/09 11:23:57;;;;;;;4.10;2.42;;;;;;;26.58;94.50;152726.47;6245348;23;20549;-61
2023/06/09 11:26:25;;;;;;;3.00;2.42;;;;;;;26.37;100.00;152672.75;6245936;23;20249;-63
2023/06/09 11:28:53;;;;;;;2.97;2.65;;;;;;;26.39;100.00;152676.63;6245855;23;20181;-63